Time;durP1;ratioP1;P1;durP2;ratioP2;P2;SDS_P1;SDS_P2;PMS_P1;PMS_P2;Temp;Humidity;BMP_temperature;BMP_pressure;BME280_temperature;BME280_humidity;BME280_pressure;Samples;Min_cycle;Max_cycle;Signal;HPM_P1;HPM_P2
2021/12/11 00:02:12;;;;;;;86.85;42.03;;;;;;;2.60;76.78;98133.56;4349836;32;34950;-86
2021/12/11 00:04:42;;;;;;;78.60;38.10;;;;;;;2.32;77.49;98135.34;4374312;32;34412;-84
2021/12/11 00:07:13;;;;;;;81.65;39.65;;;;;;;2.38;77.46;98139.75;4360852;32;33927;-85
2021/12/11 00:09:46;;;;;;;78.65;38.72;;;;;;;2.49;77.21;98148.59;4360820;32;34412;-86
2021/12/11 00:12:30;;;;;;;75.72;36.42;;;;;;;1.87;79.24;98151.06;4367132;32;35028;-85
2021/12/11 00:15:20;;;;;;;74.07;37.30;;;;;;;2.18;78.44;98164.75;4374171;32;33354;-85
2021/12/11 00:17:48;;;;;;;77.95;38.22;;;;;;;2.12;79.17;98160.34;4360231;32;34738;-84
2021/12/11 00:20:26;;;;;;;84.32;38.47;;;;;;;1.93;79.62;98161.50;4374275;32;35287;-84
2021/12/11 00:22:54;;;;;;;82.20;40.00;;;;;;;2.37;78.25;98167.03;4369395;32;33603;-84
2021/12/11 00:25:22;;;;;;;79.55;38.85;;;;;;;2.53;77.26;98170.03;4373956;32;33692;-86
2021/12/11 00:27:50;;;;;;;73.15;37.45;;;;;;;2.91;76.20;98174.50;4374060;32;33676;-84
2021/12/11 00:30:27;;;;;;;76.35;39.58;;;;;;;2.56;77.56;98176.09;4354814;32;33880;-85
2021/12/11 00:33:10;;;;;;;78.57;37.60;;;;;;;2.30;78.38;98187.28;4359175;32;34732;-86
2021/12/11 00:35:38;;;;;;;77.65;40.38;;;;;;;2.42;78.06;98187.63;4358896;32;33546;-86
2021/12/11 00:38:09;;;;;;;69.37;35.72;;;;;;;2.83;76.16;98199.03;4359360;32;34894;-86
2021/12/11 00:40:38;;;;;;;72.03;37.97;;;;;;;3.18;74.94;98204.22;4368079;32;33745;-86
2021/12/11 00:43:07;;;;;;;73.18;37.78;;;;;;;2.41;77.53;98211.47;4372875;32;34622;-86
2021/12/11 00:45:37;;;;;;;71.32;38.05;;;;;;;2.83;76.47;98216.09;4356664;32;33326;-86
2021/12/11 00:48:07;;;;;;;73.80;38.03;;;;;;;2.86;75.92;98211.91;4364568;32;33866;-86
2021/12/11 00:50:43;;;;;;;72.15;38.25;;;;;;;2.73;76.38;98214.97;4374295;32;33923;-87
2021/12/11 00:53:20;;;;;;;71.18;35.58;;;;;;;2.81;76.25;98218.63;4353544;32;33616;-88
2021/12/11 00:55:52;;;;;;;69.22;37.58;;;;;;;2.76;76.41;98234.66;4347679;32;33546;-86
2021/12/11 00:58:23;;;;;;;68.12;37.72;;;;;;;3.06;75.00;98242.31;4361508;32;34523;-86
2021/12/11 01:00:56;;;;;;;62.08;33.75;;;;;;;3.08;74.80;98244.09;4372825;32;35536;-88
2021/12/11 01:03:31;;;;;;;66.28;36.25;;;;;;;2.44;76.93;98245.69;4365613;32;34933;-86
2021/12/11 01:06:06;;;;;;;69.68;36.70;;;;;;;2.75;76.52;98243.16;4364904;32;34448;-86
2021/12/11 01:08:39;;;;;;;72.45;37.10;;;;;;;2.71;76.57;98246.47;4362548;32;33575;-88
2021/12/11 01:11:09;;;;;;;63.85;34.90;;;;;;;2.73;76.60;98235.44;4375426;32;34089;-86
2021/12/11 01:13:45;;;;;;;72.45;37.17;;;;;;;2.39;77.92;98249.81;4364050;32;33797;-86
2021/12/11 01:16:15;;;;;;;71.62;35.38;;;;;;;2.69;76.92;98231.06;4361105;32;34383;-85
2021/12/11 01:18:47;;;;;;;67.82;34.75;;;;;;;3.12;75.21;98235.69;4360940;32;35097;-87
2021/12/11 01:21:54;;;;;;;72.35;36.22;;;;;;;3.34;74.38;98251.62;4348881;32;33554;-85
2021/12/11 01:24:42;;;;;;;68.15;36.05;;;;;;;3.30;74.24;98252.38;4343650;33;34061;-87
2021/12/11 01:27:20;;;;;;;68.15;36.88;;;;;;;2.76;76.12;98250.88;4335480;33;33445;-87
2021/12/11 01:29:56;;;;;;;63.40;34.63;;;;;;;3.09;74.91;98245.84;4310239;33;33061;-86
2021/12/11 01:32:25;;;;;;;58.83;32.35;;;;;;;3.06;75.05;98242.31;4302528;33;34915;-87
2021/12/11 01:34:54;;;;;;;63.60;33.60;;;;;;;3.25;74.15;98246.25;4302350;33;34461;-87
2021/12/11 01:37:21;;;;;;;71.00;35.80;;;;;;;3.40;73.64;98247.50;4314500;33;33599;-85
2021/12/11 01:39:51;;;;;;;66.85;36.15;;;;;;;2.89;75.38;98247.00;4324024;33;34390;-85
2021/12/11 01:42:23;;;;;;;70.30;33.63;;;;;;;3.44;73.71;98255.28;4314313;33;33971;-86
2021/12/11 01:44:55;;;;;;;71.22;36.17;;;;;;;3.04;74.60;98259.34;4302233;33;33750;-85
2021/12/11 01:47:32;;;;;;;67.18;33.72;;;;;;;2.90;75.13;98262.38;4290364;33;33915;-87
2021/12/11 01:50:07;;;;;;;64.40;36.05;;;;;;;3.04;75.15;98262.78;4318001;33;34776;-87
2021/12/11 01:52:40;;;;;;;64.60;33.65;;;;;;;3.30;74.18;98271.19;4310955;33;34229;-87
2021/12/11 01:55:10;;;;;;;67.80;33.33;;;;;;;3.40;73.91;98270.56;4328471;32;33894;-87
2021/12/11 01:57:37;;;;;;;68.28;34.75;;;;;;;3.65;73.08;98264.41;4367692;32;33724;-88
2021/12/11 02:00:13;;;;;;;65.53;34.40;;;;;;;3.50;72.99;98263.16;4370149;32;33690;-87
2021/12/11 02:02:46;;;;;;;68.93;33.72;;;;;;;3.02;75.33;98260.97;4369887;32;33467;-86
2021/12/11 02:05:20;;;;;;;70.18;33.72;;;;;;;3.14;74.38;98254.53;4367170;32;33789;-87
2021/12/11 02:07:50;;;;;;;66.30;33.63;;;;;;;3.18;74.48;98255.44;4364285;32;33335;-88
2021/12/11 02:10:25;;;;;;;68.32;34.33;;;;;;;2.88;75.33;98245.25;4351765;32;34013;-87
2021/12/11 02:12:53;;;;;;;71.60;35.60;;;;;;;2.95;75.11;98246.28;4362110;32;34961;-87
2021/12/11 02:15:30;;;;;;;72.05;35.13;;;;;;;3.12;74.81;98250.19;4356876;32;33631;-85
2021/12/11 02:18:32;;;;;;;65.95;33.15;;;;;;;3.16;74.63;98239.19;4355731;32;32949;-87
2021/12/11 02:21:08;;;;;;;74.07;36.15;;;;;;;2.80;75.73;98234.78;4369731;32;35464;-86
2021/12/11 02:23:35;;;;;;;69.03;34.60;;;;;;;2.98;75.65;98237.00;4371916;32;34213;-87
2021/12/11 02:26:12;;;;;;;65.53;34.22;;;;;;;3.24;74.88;98245.38;4348163;32;33227;-88
2021/12/11 02:28:56;;;;;;;64.03;33.90;;;;;;;3.24;74.42;98247.94;4369586;32;32841;-87
2021/12/11 02:31:29;;;;;;;77.03;35.20;;;;;;;3.36;74.48;98240.56;4369764;32;33556;-86
2021/12/11 02:34:08;;;;;;;75.10;36.63;;;;;;;2.85;76.35;98242.59;4369033;32;34927;-89
2021/12/11 02:36:43;;;;;;;76.15;35.78;;;;;;;2.91;75.95;98246.19;4357836;32;33510;-86
2021/12/11 02:39:35;;;;;;;69.20;34.97;;;;;;;3.29;74.62;98248.06;4374975;32;33104;-86
2021/12/11 02:42:16;;;;;;;70.85;34.25;;;;;;;3.57;73.89;98239.41;4360328;32;33883;-85
2021/12/11 02:44:56;;;;;;;64.45;32.67;;;;;;;3.65;73.72;98233.66;4361132;32;35458;-85
2021/12/11 02:47:23;;;;;;;64.82;32.58;;;;;;;3.92;72.67;98234.28;4355216;32;35151;-86
2021/12/11 02:49:59;;;;;;;67.05;33.97;;;;;;;3.86;72.57;98238.44;4365652;32;33456;-83
2021/12/11 02:52:58;;;;;;;59.25;32.50;;;;;;;3.97;72.28;98245.50;4346776;32;33615;-85
2021/12/11 02:55:40;;;;;;;70.95;34.28;;;;;;;3.89;72.14;98238.50;4368224;32;34107;-85
2021/12/11 02:58:20;;;;;;;72.20;33.33;;;;;;;4.01;71.94;98231.94;4360532;32;34023;-85
2021/12/11 03:00:55;;;;;;;79.72;37.78;;;;;;;4.01;71.41;98235.34;4362982;32;34291;-85
2021/12/11 03:03:31;;;;;;;63.70;32.45;;;;;;;4.20;70.98;98203.28;4347302;32;33613;-85
2021/12/11 03:06:08;;;;;;;74.32;35.42;;;;;;;4.23;71.07;98207.66;4360434;32;34217;-84
2021/12/11 03:08:37;;;;;;;63.67;34.10;;;;;;;3.98;71.88;98219.03;4375248;32;34031;-84
2021/12/11 03:11:13;;;;;;;62.17;33.00;;;;;;;3.94;72.10;98230.03;4360157;32;33241;-86
2021/12/11 03:13:49;;;;;;;64.43;33.45;;;;;;;4.31;71.27;98217.22;4374440;32;33948;-87
2021/12/11 03:16:22;;;;;;;64.97;32.92;;;;;;;3.85;72.57;98235.81;4359032;32;33544;-85
2021/12/11 03:18:51;;;;;;;62.53;31.60;;;;;;;4.21;71.57;98240.97;4372479;32;34030;-86
2021/12/11 03:21:19;;;;;;;62.75;35.25;;;;;;;4.28;70.76;98247.97;4360064;32;34234;-85
2021/12/11 03:23:47;;;;;;;60.50;34.38;;;;;;;4.37;70.59;98252.44;4360908;32;33696;-87
2021/12/11 03:26:15;;;;;;;59.78;31.65;;;;;;;4.48;70.24;98261.25;4367036;32;35062;-87
2021/12/11 03:28:43;;;;;;;58.20;32.40;;;;;;;4.67;69.70;98262.50;4369907;32;33475;-87
2021/12/11 03:31:11;;;;;;;58.75;31.95;;;;;;;4.43;69.34;98272.22;4360680;32;33820;-84
2021/12/11 03:33:43;;;;;;;57.50;31.33;;;;;;;4.48;69.74;98275.78;4346454;32;34882;-87
2021/12/11 03:36:12;;;;;;;65.80;32.38;;;;;;;4.58;69.42;98277.69;4354282;32;34218;-85
2021/12/11 03:38:44;;;;;;;62.53;32.00;;;;;;;4.25;70.95;98295.78;4370380;32;34047;-87
2021/12/11 03:41:13;;;;;;;56.50;31.08;;;;;;;4.04;70.98;98297.00;4363962;32;33630;-85
2021/12/11 03:43:41;;;;;;;60.15;31.37;;;;;;;3.78;72.01;98301.47;4374581;32;34057;-87
2021/12/11 03:46:09;;;;;;;56.35;29.25;;;;;;;3.86;71.81;98297.41;4350032;32;35082;-86
2021/12/11 03:48:44;;;;;;;50.45;27.98;;;;;;;4.09;71.30;98303.13;4346112;32;34677;-88
2021/12/11 03:51:16;;;;;;;53.00;27.95;;;;;;;4.47;70.27;98295.47;4354589;32;32954;-86
2021/12/11 03:53:44;;;;;;;51.50;27.77;;;;;;;4.56;70.01;98293.09;4360705;32;33636;-87
2021/12/11 03:56:14;;;;;;;45.55;24.95;;;;;;;4.54;69.83;98299.88;4350354;32;34943;-87
2021/12/11 03:58:48;;;;;;;39.38;21.50;;;;;;;4.28;69.84;98298.41;4347919;32;33748;-87
2021/12/11 04:01:29;;;;;;;37.10;19.83;;;;;;;4.11;69.57;98285.19;4354206;32;34004;-86
2021/12/11 04:04:03;;;;;;;38.30;20.00;;;;;;;4.03;69.23;98279.00;4360745;32;33647;-87
2021/12/11 04:06:31;;;;;;;39.20;20.92;;;;;;;4.07;68.77;98283.38;4370561;32;34960;-88
2021/12/11 04:09:00;;;;;;;37.00;21.17;;;;;;;3.96;69.46;98279.69;4360809;32;34723;-87
2021/12/11 04:11:31;;;;;;;43.03;21.20;;;;;;;4.17;69.22;98285.34;4346190;32;33529;-88
2021/12/11 04:14:04;;;;;;;37.33;20.58;;;;;;;4.57;67.94;98275.97;4347035;32;33664;-87
2021/12/11 04:16:32;;;;;;;40.55;23.15;;;;;;;4.79;67.47;98288.44;4355740;32;33497;-87
2021/12/11 04:19:01;;;;;;;41.72;23.48;;;;;;;4.50;68.35;98297.19;4360996;32;34447;-86
2021/12/11 04:21:28;;;;;;;43.45;23.70;;;;;;;4.55;68.27;98283.66;4362135;32;33678;-87
2021/12/11 04:23:56;;;;;;;39.72;22.08;;;;;;;4.48;68.38;98289.47;4370494;32;34668;-86
2021/12/11 04:26:23;;;;;;;39.60;21.98;;;;;;;4.10;69.55;98296.28;4365003;32;33793;-87
2021/12/11 04:28:51;;;;;;;38.05;21.98;;;;;;;4.07;69.59;98303.91;4362563;32;34180;-86
2021/12/11 04:31:22;;;;;;;40.65;22.52;;;;;;;4.35;68.64;98303.72;4368360;32;33728;-87
2021/12/11 04:33:52;;;;;;;40.10;20.98;;;;;;;4.35;68.37;98311.41;4367882;32;34112;-86
2021/12/11 04:36:23;;;;;;;37.15;21.27;;;;;;;4.09;69.23;98309.91;4363922;32;34054;-87
2021/12/11 04:38:52;;;;;;;42.25;22.80;;;;;;;4.38;68.30;98313.19;4359166;32;34368;-87
2021/12/11 04:41:28;;;;;;;39.47;22.00;;;;;;;4.11;68.83;98314.25;4369211;32;33411;-87
2021/12/11 04:43:56;;;;;;;;;;;;;;;3.93;69.46;98318.94;4374731;32;34114;-87
2021/12/11 04:46:24;;;;;;;39.90;21.02;;;;;;;4.06;69.25;98318.41;4364031;32;35203;-87
2021/12/11 04:49:11;;;;;;;39.63;21.52;;;;;;;4.36;68.18;98315.72;4361165;32;34044;-87
2021/12/11 04:51:49;;;;;;;41.47;21.67;;;;;;;4.52;67.59;98308.37;4370781;32;33538;-86
2021/12/11 05:00:42;;;;;;;;;;;;;;;4.24;68.47;98330.81;4365348;32;33953;-86
2021/12/11 05:08:25;;;;;;;38.20;20.88;;;;;;;4.22;68.27;98327.34;4366478;32;33708;-86
2021/12/11 05:13:23;;;;;;;42.95;21.35;;;;;;;4.07;68.71;98343.22;4362625;32;33551;-87
2021/12/11 05:15:52;;;;;;;35.95;21.62;;;;;;;4.21;68.43;98345.28;4353874;32;33658;-87
2021/12/11 05:18:24;;;;;;;32.55;19.17;;;;;;;4.24;68.07;98353.91;4365906;32;33533;-87
2021/12/11 05:20:54;;;;;;;34.38;20.02;;;;;;;4.48;67.24;98352.78;4355673;32;34227;-87
2021/12/11 05:23:22;;;;;;;32.80;19.67;;;;;;;4.00;68.67;98336.22;4361148;32;33565;-87
2021/12/11 05:25:50;;;;;;;31.77;18.77;;;;;;;4.07;68.27;98344.94;4352849;32;34604;-87
2021/12/11 05:28:20;;;;;;;30.55;17.45;;;;;;;4.10;68.13;98340.75;4361273;32;34941;-87
2021/12/11 05:30:50;;;;;;;30.60;17.95;;;;;;;4.05;68.16;98347.47;4351413;32;33873;-87
2021/12/11 05:33:19;;;;;;;33.53;17.80;;;;;;;3.98;67.81;98340.44;4358523;32;34511;-87
2021/12/11 05:35:48;;;;;;;28.52;16.48;;;;;;;3.76;68.68;98348.41;4362194;32;33860;-87
2021/12/11 05:38:17;;;;;;;30.33;16.20;;;;;;;3.22;70.33;98353.72;4369875;32;34274;-86
2021/12/11 05:40:48;;;;;;;27.40;15.50;;;;;;;3.59;69.44;98360.75;4370458;32;34069;-87
2021/12/11 05:43:17;;;;;;;28.27;14.98;;;;;;;3.40;69.93;98365.38;4356412;32;33434;-87
2021/12/11 05:45:44;;;;;;;27.15;15.82;;;;;;;3.82;68.31;98358.81;4355019;32;34866;-86
2021/12/11 05:48:14;;;;;;;30.17;17.48;;;;;;;4.07;67.80;98353.50;4374956;32;34033;-87
2021/12/11 05:50:49;;;;;;;30.00;16.73;;;;;;;3.65;68.73;98353.25;4355382;32;34049;-87
2021/12/11 05:53:18;;;;;;;32.20;17.33;;;;;;;3.05;71.36;98364.38;4368170;32;33605;-87
2021/12/11 05:55:47;;;;;;;30.10;15.65;;;;;;;3.27;70.63;98371.00;4361485;32;34832;-86
2021/12/11 05:58:24;;;;;;;29.05;17.40;;;;;;;3.47;69.53;98374.09;4363215;32;33907;-88
2021/12/11 06:00:53;;;;;;;33.05;18.25;;;;;;;3.39;69.55;98384.13;4363827;32;33137;-86
2021/12/11 06:03:21;;;;;;;31.92;17.83;;;;;;;2.89;72.08;98401.44;4351670;32;33792;-87
2021/12/11 06:05:48;;;;;;;39.30;21.37;;;;;;;3.28;70.68;98398.34;4361184;32;34350;-87
2021/12/11 06:08:16;;;;;;;35.33;21.08;;;;;;;3.63;69.20;98406.16;4363539;32;35069;-87
2021/12/11 06:10:45;;;;;;;34.40;19.67;;;;;;;3.62;68.75;98415.53;4364745;32;34182;-87
2021/12/11 06:13:13;;;;;;;35.03;19.55;;;;;;;3.81;68.55;98429.72;4360855;32;33641;-87
2021/12/11 06:15:40;;;;;;;33.95;19.42;;;;;;;3.63;69.22;98434.34;4367945;32;33887;-87
2021/12/11 06:18:14;;;;;;;39.17;21.27;;;;;;;3.59;69.50;98453.03;4360930;32;35038;-88
2021/12/11 06:20:41;;;;;;;33.25;19.25;;;;;;;3.87;68.56;98464.94;4365149;32;34491;-87
2021/12/11 06:23:09;;;;;;;33.90;19.70;;;;;;;3.54;69.53;98460.59;4348808;32;34343;-87
2021/12/11 06:25:37;;;;;;;33.95;19.80;;;;;;;3.77;68.35;98466.38;4360904;32;34053;-87
2021/12/11 06:28:07;;;;;;;30.23;19.05;;;;;;;4.02;67.72;98461.94;4366770;32;34771;-86
2021/12/11 06:30:36;;;;;;;31.83;19.02;;;;;;;4.33;66.69;98468.75;4366217;32;34421;-86
2021/12/11 06:33:04;;;;;;;36.78;21.77;;;;;;;4.28;66.76;98463.50;4361601;32;33674;-85
2021/12/11 06:35:47;;;;;;;34.53;20.02;;;;;;;4.65;65.78;98474.69;4362662;32;34718;-86
2021/12/11 06:38:19;;;;;;;34.72;21.00;;;;;;;4.16;67.29;98478.53;4369604;32;33959;-86
2021/12/11 06:40:48;;;;;;;36.20;20.77;;;;;;;4.27;66.37;98481.41;4363622;32;33883;-86
2021/12/11 06:43:16;;;;;;;35.92;19.95;;;;;;;4.13;66.95;98499.87;4360615;32;33443;-87
2021/12/11 06:45:45;;;;;;;34.28;19.83;;;;;;;3.88;68.06;98497.44;4361089;32;35075;-91
2021/12/11 06:48:15;;;;;;;36.03;20.88;;;;;;;3.72;68.92;98508.97;4360176;32;34068;-87
2021/12/11 06:50:45;;;;;;;37.35;23.52;;;;;;;3.93;68.30;98500.13;4360890;32;34057;-87
2021/12/11 06:53:17;;;;;;;32.33;19.80;;;;;;;4.09;67.73;98507.41;4360916;32;34189;-86
2021/12/11 06:55:45;;;;;;;32.33;18.35;;;;;;;3.93;67.04;98508.69;4350472;32;34605;-86
2021/12/11 06:58:12;;;;;;;34.38;19.30;;;;;;;4.21;66.45;98517.19;4364568;32;33746;-87
2021/12/11 07:00:40;;;;;;;33.35;19.60;;;;;;;4.04;67.37;98524.38;4369522;32;35262;-86
2021/12/11 07:03:08;;;;;;;33.28;18.12;;;;;;;4.18;66.99;98530.78;4363943;32;34425;-85
2021/12/11 07:05:37;;;;;;;34.50;20.42;;;;;;;3.98;67.68;98537.03;4360611;32;34678;-88
2021/12/11 07:08:07;;;;;;;30.37;17.75;;;;;;;3.83;67.82;98548.59;4361134;32;34958;-88
2021/12/11 07:10:35;;;;;;;31.90;18.87;;;;;;;4.01;67.94;98557.62;4358764;32;34015;-87
2021/12/11 07:13:02;;;;;;;35.60;20.40;;;;;;;3.95;67.93;98560.03;4362995;32;33648;-87
2021/12/11 07:15:30;;;;;;;35.78;20.48;;;;;;;4.15;67.32;98574.31;4366500;32;34768;-86
2021/12/11 07:17:58;;;;;;;31.67;17.65;;;;;;;4.22;67.07;98571.09;4360056;32;34269;-87
2021/12/11 07:20:25;;;;;;;30.15;17.42;;;;;;;4.53;66.26;98574.50;4360206;32;33985;-86
2021/12/11 07:22:54;;;;;;;31.33;18.37;;;;;;;3.97;67.46;98590.03;4362548;32;33441;-87
2021/12/11 07:25:30;;;;;;;31.98;18.65;;;;;;;4.06;67.04;98597.13;4359839;32;34032;-87
2021/12/11 07:27:58;;;;;;;32.80;19.75;;;;;;;4.16;66.32;98601.69;4360117;32;34063;-87
2021/12/11 07:30:26;;;;;;;31.75;18.12;;;;;;;4.44;65.80;98603.34;4361790;32;33969;-87
2021/12/11 07:32:55;;;;;;;35.30;19.23;;;;;;;4.38;66.07;98614.31;4372201;32;33503;-86
2021/12/11 07:35:23;;;;;;;31.10;17.52;;;;;;;4.37;65.72;98612.56;4363573;32;33907;-88
2021/12/11 07:37:52;;;;;;;30.20;18.08;;;;;;;4.37;65.85;98617.72;4373400;32;34628;-87
2021/12/11 07:40:23;;;;;;;28.85;17.65;;;;;;;4.39;66.11;98626.34;4364268;32;33748;-87
2021/12/11 07:42:50;;;;;;;29.98;17.48;;;;;;;4.36;66.07;98621.09;4365959;32;33673;-87
2021/12/11 07:45:19;;;;;;;28.45;16.55;;;;;;;4.43;65.62;98619.56;4367757;32;33298;-87
2021/12/11 07:47:46;;;;;;;36.22;19.50;;;;;;;4.56;65.11;98625.94;4351410;32;33973;-88
2021/12/11 07:50:14;;;;;;;30.58;17.60;;;;;;;4.44;65.15;98623.03;4360561;32;34891;-87
2021/12/11 07:52:42;;;;;;;25.67;16.42;;;;;;;3.69;67.80;98613.97;4369698;32;33912;-88
2021/12/11 07:55:09;;;;;;;32.60;18.77;;;;;;;3.76;67.77;98613.34;4361552;32;33589;-86
2021/12/11 07:57:38;;;;;;;28.12;16.60;;;;;;;3.77;67.96;98617.62;4371018;32;35521;-87
2021/12/11 08:00:11;;;;;;;24.45;14.82;;;;;;;3.51;68.50;98605.69;4348238;32;33902;-87
2021/12/11 08:02:40;;;;;;;25.58;16.17;;;;;;;3.76;67.20;98609.91;4359480;32;33710;-87
2021/12/11 08:05:08;;;;;;;21.98;13.95;;;;;;;3.90;66.66;98617.19;4364501;32;33620;-87
2021/12/11 08:07:36;;;;;;;23.27;13.15;;;;;;;3.86;66.65;98620.50;4365376;32;34206;-87
2021/12/11 08:10:06;;;;;;;23.20;13.38;;;;;;;3.69;67.32;98618.22;4351011;32;33535;-86
2021/12/11 08:12:34;;;;;;;23.00;13.40;;;;;;;3.46;68.47;98626.06;4366745;32;33626;-86
2021/12/11 08:15:04;;;;;;;21.77;13.18;;;;;;;3.58;67.62;98625.56;4365439;32;34658;-85
2021/12/11 08:17:32;;;;;;;22.52;12.85;;;;;;;3.58;68.31;98635.84;4365849;32;34063;-86
2021/12/11 08:19:59;;;;;;;23.23;13.48;;;;;;;3.85;67.25;98630.69;4361335;32;33669;-83
2021/12/11 08:22:27;;;;;;;23.08;13.75;;;;;;;4.08;66.61;98626.25;4373922;32;34228;-85
2021/12/11 08:24:54;;;;;;;22.98;14.43;;;;;;;4.28;65.82;98630.28;4361430;32;34881;-86
2021/12/11 08:27:22;;;;;;;27.48;15.00;;;;;;;4.01;66.44;98637.16;4362761;32;33914;-86
2021/12/11 08:29:52;;;;;;;24.80;15.35;;;;;;;3.31;68.71;98633.25;4361274;32;34081;-87
2021/12/11 08:32:21;;;;;;;22.75;13.77;;;;;;;3.88;67.14;98636.78;4367950;32;33734;-86
2021/12/11 08:34:52;;;;;;;25.65;12.88;;;;;;;4.13;66.24;98642.66;4370727;32;33330;-87
2021/12/11 08:37:23;;;;;;;16.45;10.20;;;;;;;3.72;67.14;98644.84;4375920;32;33956;-87
2021/12/11 08:39:50;;;;;;;19.80;11.55;;;;;;;3.30;68.26;98640.06;4362215;32;33961;-88
2021/12/11 08:42:23;;;;;;;17.40;12.05;;;;;;;3.45;67.68;98641.38;4375746;32;33572;-88
2021/12/11 08:44:58;;;;;;;19.67;11.70;;;;;;;3.22;68.57;98649.19;4369453;32;33903;-87
2021/12/11 08:47:27;;;;;;;16.15;9.50;;;;;;;3.07;69.45;98654.69;4352521;32;35101;-87
2021/12/11 08:49:56;;;;;;;16.35;9.50;;;;;;;2.50;70.85;98650.91;4364288;32;33628;-87
2021/12/11 08:52:27;;;;;;;18.23;10.52;;;;;;;2.64;70.09;98649.72;4353695;32;34304;-88
2021/12/11 08:54:57;;;;;;;17.95;9.75;;;;;;;3.44;68.08;98647.31;4361279;32;34609;-87
2021/12/11 08:57:29;;;;;;;17.10;10.38;;;;;;;3.05;69.21;98645.19;4362127;32;34291;-87
2021/12/11 09:00:04;;;;;;;13.90;9.02;;;;;;;2.61;70.67;98664.97;4361582;32;34029;-87
2021/12/11 09:02:43;;;;;;;15.80;9.57;;;;;;;2.80;70.31;98661.38;4366486;32;33634;-88
2021/12/11 09:05:18;;;;;;;16.48;9.88;;;;;;;2.69;70.25;98666.16;4374035;32;34010;-86
2021/12/11 09:08:01;;;;;;;16.65;9.27;;;;;;;3.04;69.70;98671.62;4357248;32;33793;-87
2021/12/11 09:10:56;;;;;;;16.65;10.90;;;;;;;3.13;69.33;98669.38;4369523;32;34812;-89
2021/12/11 09:13:27;;;;;;;16.30;9.52;;;;;;;3.16;69.18;98672.03;4359232;32;33063;-88
2021/12/11 09:16:03;;;;;;;16.65;9.88;;;;;;;3.09;68.97;98675.19;4356822;32;32070;-88
2021/12/11 09:18:48;;;;;;;16.48;9.85;;;;;;;2.76;70.11;98680.00;4374729;32;35161;-87
2021/12/11 09:21:25;;;;;;;20.00;11.02;;;;;;;2.86;69.73;98689.78;4368287;32;33743;-89
2021/12/11 09:24:03;;;;;;;18.98;9.93;;;;;;;2.98;69.77;98690.19;4355868;32;33294;-86
2021/12/11 09:26:49;;;;;;;19.40;9.85;;;;;;;3.17;68.51;98691.69;4369185;32;33672;-89
2021/12/11 09:29:24;;;;;;;15.95;10.27;;;;;;;3.37;68.48;98698.37;4360782;32;35036;-88
2021/12/11 09:31:58;;;;;;;17.33;10.00;;;;;;;3.59;67.58;98699.06;4366594;32;33821;-86
2021/12/11 09:34:32;;;;;;;15.68;9.07;;;;;;;3.20;68.79;98703.75;4363255;32;34640;-86
2021/12/11 09:37:03;;;;;;;14.93;9.35;;;;;;;3.37;68.13;98707.75;4364399;32;34042;-85
2021/12/11 09:39:44;;;;;;;15.50;8.23;;;;;;;3.66;67.36;98707.00;4367040;32;34042;-86
2021/12/11 09:42:12;;;;;;;16.87;10.43;;;;;;;3.76;66.48;98715.88;4366804;32;34015;-87
2021/12/11 09:44:46;;;;;;;15.80;9.45;;;;;;;3.98;65.83;98714.00;4372932;32;85925;-87
2021/12/11 09:47:20;;;;;;;15.07;9.45;;;;;;;3.71;66.46;98719.97;4358879;32;34661;-88
2021/12/11 09:49:58;;;;;;;12.80;8.27;;;;;;;3.62;66.97;98714.56;4375748;32;34101;-88
2021/12/11 09:52:27;;;;;;;15.45;8.18;;;;;;;3.25;68.88;98713.31;4367748;32;33764;-88
2021/12/11 09:55:10;;;;;;;12.48;7.85;;;;;;;3.53;67.18;98699.75;4364725;32;33893;-87
2021/12/11 09:57:42;;;;;;;13.25;7.85;;;;;;;3.44;67.83;98706.25;4362890;32;34126;-85
2021/12/11 10:00:17;;;;;;;14.07;8.95;;;;;;;3.26;67.64;98704.84;4359040;32;33885;-87
2021/12/11 10:02:45;;;;;;;12.43;7.45;;;;;;;2.65;70.08;98702.66;4373026;32;33552;-87
2021/12/11 10:05:44;;;;;;;12.73;7.78;;;;;;;3.33;68.53;98693.09;4354960;32;33484;-87
2021/12/11 10:11:14;;;;;;;16.30;9.30;;;;;;;3.21;68.80;98685.00;4359549;32;33788;-87
2021/12/11 10:13:52;;;;;;;15.00;9.13;;;;;;;3.20;69.29;98681.56;4368746;32;33582;-88
2021/12/11 10:16:22;;;;;;;18.00;10.77;;;;;;;2.71;70.83;98692.66;4374472;32;34208;-86
2021/12/11 10:18:51;;;;;;;15.82;9.95;;;;;;;3.23;68.91;98686.81;4368800;32;33991;-87
2021/12/11 10:21:32;;;;;;;16.67;10.57;;;;;;;3.23;68.25;98688.50;4360753;32;33668;-87
2021/12/11 10:24:04;;;;;;;17.00;11.05;;;;;;;2.81;70.40;98688.75;4370070;32;35202;-87
2021/12/11 10:26:32;;;;;;;16.55;11.10;;;;;;;3.10;69.83;98685.50;4362986;32;33766;-88
2021/12/11 10:29:03;;;;;;;16.52;9.07;;;;;;;3.42;68.70;98686.59;4350741;32;33893;-86
2021/12/11 10:31:35;;;;;;;15.77;9.48;;;;;;;3.54;68.15;98680.13;4350315;32;34182;-89
2021/12/11 10:34:08;;;;;;;13.77;9.65;;;;;;;3.02;70.18;98688.59;4361823;32;33752;-85
2021/12/11 10:36:43;;;;;;;16.77;9.55;;;;;;;2.90;70.25;98697.59;4371355;32;33224;-87
2021/12/11 10:39:13;;;;;;;14.98;8.85;;;;;;;2.82;70.49;98714.38;4370466;32;34176;-90
2021/12/11 10:41:45;;;;;;;13.95;8.27;;;;;;;3.19;69.07;98705.44;4372638;32;33817;-86
2021/12/11 10:44:35;;;;;;;15.32;9.35;;;;;;;2.77;70.47;98705.69;4360229;32;34530;-86
2021/12/11 10:47:09;;;;;;;15.80;9.95;;;;;;;2.84;70.70;98712.75;4348043;32;33467;-86
2021/12/11 10:49:37;;;;;;;16.55;10.15;;;;;;;3.16;70.00;98710.47;4362065;32;33702;-87
2021/12/11 10:52:13;;;;;;;16.33;9.85;;;;;;;2.97;70.03;98702.94;4364135;32;35266;-90
2021/12/11 10:54:40;;;;;;;17.67;10.70;;;;;;;3.30;69.39;98699.00;4366068;32;32159;-85
2021/12/11 10:57:08;;;;;;;19.65;12.00;;;;;;;3.22;69.93;98703.00;4372973;32;32954;-86
2021/12/11 10:59:41;;;;;;;21.55;11.48;;;;;;;3.18;69.95;98701.12;4350686;32;34697;-92
2021/12/11 11:02:19;;;;;;;18.50;11.25;;;;;;;2.95;70.57;98708.00;4369800;32;34719;-91
2021/12/11 11:04:50;;;;;;;18.62;11.63;;;;;;;3.48;69.05;98691.03;4374902;32;33765;-87
2021/12/11 11:07:18;;;;;;;18.60;10.63;;;;;;;3.15;69.87;98695.91;4368803;32;34546;-88
2021/12/11 11:09:47;;;;;;;14.50;9.20;;;;;;;2.81;71.60;98689.63;4356391;32;34665;-87
2021/12/11 11:12:18;;;;;;;17.37;10.35;;;;;;;3.11;70.44;98688.94;4363468;32;34825;-86
2021/12/11 11:14:47;;;;;;;18.10;11.55;;;;;;;3.09;70.24;98682.87;4372719;32;33984;-88
2021/12/11 11:17:18;;;;;;;19.67;12.10;;;;;;;3.05;70.83;98688.72;4373064;32;33637;-86
2021/12/11 11:19:47;;;;;;;20.25;12.50;;;;;;;3.42;69.76;98691.72;4374106;32;34500;-86
2021/12/11 11:22:19;;;;;;;16.75;10.70;;;;;;;3.32;69.50;98694.78;4357043;32;34295;-89
2021/12/11 11:24:56;;;;;;;16.50;11.02;;;;;;;3.27;69.78;98680.09;4361742;32;34716;-91
2021/12/11 11:27:24;;;;;;;15.68;9.40;;;;;;;3.19;70.03;98684.94;4360425;32;33248;-88
2021/12/11 11:29:52;;;;;;;17.17;10.13;;;;;;;3.17;70.06;98689.13;4372908;32;33852;-86
2021/12/11 11:32:31;;;;;;;17.80;11.38;;;;;;;3.56;69.03;98678.47;4351537;32;34180;-86
2021/12/11 11:35:20;;;;;;;19.17;11.95;;;;;;;3.80;68.60;98689.53;4367574;32;33517;-92
2021/12/11 11:37:51;;;;;;;17.48;10.60;;;;;;;2.92;70.91;98690.00;4348795;32;33573;-87
2021/12/11 11:40:23;;;;;;;25.25;13.13;;;;;;;3.09;70.82;98688.88;4364182;32;33629;-87
2021/12/11 11:42:50;;;;;;;38.45;18.95;;;;;;;2.89;70.76;98677.09;4361675;32;34034;-85
2021/12/11 11:45:19;;;;;;;17.98;11.02;;;;;;;3.17;70.15;98681.44;4351168;32;33905;-86
2021/12/11 11:47:47;;;;;;;20.67;12.65;;;;;;;2.94;71.38;98683.22;4351130;32;33395;-87
2021/12/11 11:50:17;;;;;;;18.10;11.75;;;;;;;3.43;69.33;98695.16;4346608;32;34398;-86
2021/12/11 11:52:45;;;;;;;19.60;12.40;;;;;;;3.64;68.94;98698.44;4351838;32;33614;-86
2021/12/11 11:55:19;;;;;;;19.25;13.57;;;;;;;3.75;68.71;98706.47;4359685;32;33915;-86
2021/12/11 11:57:48;;;;;;;19.98;12.68;;;;;;;3.47;69.17;98714.06;4355561;32;34000;-92
2021/12/11 12:00:27;;;;;;;17.48;11.50;;;;;;;3.98;67.13;98727.72;4352471;32;34064;-90
2021/12/11 12:02:56;;;;;;;15.88;9.98;;;;;;;3.81;68.17;98716.03;4348128;32;34595;-85
2021/12/11 12:05:26;;;;;;;17.58;11.20;;;;;;;3.41;69.05;98725.00;4344602;32;33990;-87
2021/12/11 12:07:53;;;;;;;16.90;10.63;;;;;;;3.93;67.61;98726.69;4354836;32;33676;-87